Saturday, July 21, 2018, 3:28 PM EDT
Back to Local

KFZY, Fulton Oswego County Airport

Location: Fulton, NY, United States Lat: 43.35
Local Time: 3:28 PM EDT (19:28 GMT) Lon: -76.383
Time Zone: US/Eastern Elev: 475 ft

Show me the last for .
Show Decoded

2018-07-21 14:54 METAR KFZY 211854Z AUTO VRB05KT 10SM CLR 27/11 A2997 RMK AO2 SLP147 T02720106 =
2018-07-21 13:54 METAR KFZY 211754Z AUTO VRB04KT 10SM CLR 28/11 A2998 RMK AO2 SLP149 T02830111
                 10283 20189 58015 =
2018-07-21 12:54 METAR KFZY 211654Z AUTO VRB05G15KT 10SM CLR 27/11 A2999 RMK AO2 SLP154 T02720111
                 =
2018-07-21 11:54 METAR KFZY 211554Z AUTO VRB03KT 10SM CLR 25/13 A3002 RMK AO2 SLP162 T02500128 =
2018-07-21 10:54 METAR KFZY 211454Z AUTO VRB06KT 10SM CLR 23/11 A3002 RMK AO2 SLP164 T02330106
                 58005 =
2018-07-21 09:54 METAR KFZY 211354Z AUTO 13006KT 10SM CLR 21/13 A3004 RMK AO2 SLP169 T02110128 =
2018-07-21 08:54 METAR KFZY 211254Z AUTO 13008G16KT 100V180 10SM CLR 21/13 A3003 RMK AO2 SLP167
                 T02110128 =
2018-07-21 07:54 METAR KFZY 211154Z AUTO VRB05KT 10SM CLR 19/12 A3004 RMK AO2 SLP169 T01890117
                 10233 20183 53001 =
2018-07-21 06:54 METAR KFZY 211054Z AUTO VRB04KT 10SM CLR 19/11 A3003 RMK AO2 SLP168 T01940111 =
2018-07-21 05:54 METAR KFZY 210954Z AUTO 14003KT 10SM CLR 19/11 A3004 RMK AO2 SLP168 T01940111 =
2018-07-21 04:54 METAR KFZY 210854Z AUTO VRB03KT 10SM CLR 19/12 A3003 RMK AO2 SLP167 T01940117
                 50003 =
2018-07-21 03:54 METAR KFZY 210754Z AUTO VRB03KT 10SM CLR 20/12 A3004 RMK AO2 SLP168 T02000122 =
2018-07-21 02:54 METAR KFZY 210654Z AUTO VRB04KT 10SM CLR 22/12 A3003 RMK AO2 SLP166 T02170122 =
2018-07-21 01:54 METAR KFZY 210554Z AUTO 17009KT 10SM CLR 22/13 A3002 RMK AO2 SLP163 T02170128
                 10283 20217 53003 =
2018-07-21 00:54 METAR KFZY 210454Z AUTO VRB05KT 10SM CLR 22/13 A3002 RMK AO2 SLP160 T02220128
                 403220144 =
2018-07-20 23:54 METAR KFZY 210354Z AUTO 17007KT 10SM CLR 23/12 A3001 RMK AO2 SLP158 T02330122 =
2018-07-20 22:54 METAR KFZY 210254Z AUTO VRB03KT 10SM CLR 24/12 A3002 RMK AO2 SLP161 T02390122
                 51007 =
2018-07-20 21:54 METAR KFZY 210154Z AUTO VRB03KT 10SM FEW070 26/12 A3001 RMK AO2 SLP159 T02560122
                 =
2018-07-20 20:54 METAR KFZY 210054Z AUTO VRB04KT 10SM CLR 26/12 A3000 RMK AO2 SLP156 T02560117 =
2018-07-20 19:54 METAR KFZY 202354Z AUTO VRB03KT 10SM CLR 28/12 A2999 RMK AO2 SLP154 T02830117
                 10322 20283 56004 =
2018-07-20 18:54 METAR KFZY 202254Z AUTO 14006KT 10SM CLR 30/12 A3000 RMK AO2 SLP155 T03000117 =
2018-07-20 17:54 METAR KFZY 202154Z AUTO 14006KT 10SM CLR 31/12 A3000 RMK AO2 SLP155 T03060117 =
2018-07-20 16:54 METAR KFZY 202054Z AUTO 17011G16KT 120V190 10SM CLR 32/11 A3001 RMK AO2 SLP158
                 T03220111 56016 =
2018-07-20 15:54 METAR KFZY 201954Z AUTO 14007G18KT 10SM CLR 31/12 A3001 RMK AO2 SLP160 T03110122
                 =

Support USWX by starting your Amazon purchase here.